Time;durP1;ratioP1;P1;durP2;ratioP2;P2;SDS_P1;SDS_P2;PMS_P1;PMS_P2;Temp;Humidity;BMP_temperature;BMP_pressure;BME280_temperature;BME280_humidity;BME280_pressure;Samples;Min_cycle;Max_cycle;Signal;HPM_P1;HPM_P2
2021/01/27 00:00:23;;;;;;;0.00;0.00;;;;;;;;;;5056541;28;20887;-63
2021/01/27 00:02:50;;;;;;;0.00;0.00;;;;;;;;;;5061437;28;20188;-63
2021/01/27 00:05:25;;;;;;;0.00;0.00;;;;;;;;;;5060493;28;20716;-62
2021/01/27 00:07:52;;;;;;;0.03;0.03;;;;;;;;;;5060734;28;20205;-61
2021/01/27 00:10:18;;;;;;;6.60;2.13;;;;;;;;;;5061171;28;20546;-61
2021/01/27 00:12:45;;;;;;;0.10;0.10;;;;;;;;;;5061547;28;20448;-64
2021/01/27 00:15:14;;;;;;;0.30;0.30;;;;;;;;;;5061943;28;20197;-61
2021/01/27 00:17:41;;;;;;;0.30;0.30;;;;;;;;;;5060564;28;20228;-63
2021/01/27 00:20:09;;;;;;;0.10;0.10;;;;;;;;;;5062408;28;20212;-63
2021/01/27 00:22:36;;;;;;;0.40;0.40;;;;;;;;;;5064394;28;20188;-63
2021/01/27 00:25:05;;;;;;;1.23;0.87;;;;;;;;;;5061200;28;20569;-63
2021/01/27 00:27:31;;;;;;;1.30;0.83;;;;;;;;;;5052888;28;20320;-62
2021/01/27 00:29:58;;;;;;;0.10;0.10;;;;;;;;;;5060768;28;20217;-63
2021/01/27 00:32:28;;;;;;;0.10;0.10;;;;;;;;;;5062790;28;20889;-63
2021/01/27 00:34:55;;;;;;;5.80;5.50;;;;;;;;;;5060090;28;20193;-61
2021/01/27 00:37:23;;;;;;;0.00;0.00;;;;;;;;;;5056650;28;20233;-61
2021/01/27 00:39:50;;;;;;;0.23;0.23;;;;;;;;;;5060220;28;20185;-62
2021/01/27 00:42:16;;;;;;;0.23;0.23;;;;;;;;;;5060502;28;20188;-62
2021/01/27 00:44:43;;;;;;;0.00;0.00;;;;;;;;;;5059239;28;20188;-62
2021/01/27 00:47:10;;;;;;;0.77;0.77;;;;;;;;;;5065014;22;20227;-66
2021/01/27 00:49:36;;;;;;;0.10;0.10;;;;;;;;;;5008678;28;20202;-66
2021/01/27 00:52:03;;;;;;;0.10;0.10;;;;;;;;;;5015535;28;20184;-66
2021/01/27 00:54:30;;;;;;;0.23;0.23;;;;;;;;;;5013872;28;20195;-67
2021/01/27 00:56:58;;;;;;;5.83;1.07;;;;;;;;;;5020257;28;20304;-66
2021/01/27 00:59:24;;;;;;;0.50;0.50;;;;;;;;;;5015561;28;20202;-66
2021/01/27 01:01:51;;;;;;;0.30;0.30;;;;;;;;;;5019076;28;20205;-66
2021/01/27 01:04:17;;;;;;;0.17;0.10;;;;;;;;;;5014179;28;20229;-67
2021/01/27 01:06:44;;;;;;;0.10;0.10;;;;;;;;;;5015352;28;20676;-67
2021/01/27 01:09:10;;;;;;;0.10;0.10;;;;;;;;;;5021220;28;20203;-66
2021/01/27 01:11:37;;;;;;;0.10;0.10;;;;;;;;;;5021013;28;20201;-66
2021/01/27 01:14:04;;;;;;;0.03;0.03;;;;;;;;;;5017277;28;20277;-66
2021/01/27 01:16:30;;;;;;;0.77;0.77;;;;;;;;;;5010326;28;20313;-66
2021/01/27 01:18:58;;;;;;;0.10;0.10;;;;;;;;;;5021459;28;20190;-66
2021/01/27 01:21:24;;;;;;;0.50;0.40;;;;;;;;;;5028602;28;20255;-67
2021/01/27 01:23:51;;;;;;;0.10;0.10;;;;;;;;;;5020087;28;20682;-67
2021/01/27 01:26:17;;;;;;;0.10;0.10;;;;;;;;;;5015271;28;20763;-67
2021/01/27 01:28:44;;;;;;;0.10;0.10;;;;;;;;;;5021378;28;20292;-67
2021/01/27 01:31:10;;;;;;;0.10;0.10;;;;;;;;;;5017111;28;20198;-73
2021/01/27 01:33:37;;;;;;;1.80;0.20;;;;;;;;;;5017364;28;20380;-73
2021/01/27 01:36:03;;;;;;;0.87;0.63;;;;;;;;;;5016395;28;20202;-72
2021/01/27 01:38:30;;;;;;;2.30;1.40;;;;;;;;;;5018185;28;20191;-73
2021/01/27 01:40:58;;;;;;;0.10;0.10;;;;;;;;;;5020774;28;20182;-73
2021/01/27 01:43:32;;;;;;;0.47;0.47;;;;;;;;;;5017955;28;20944;-73
2021/01/27 01:46:12;;;;;;;0.23;0.23;;;;;;;;;;5014071;28;20205;-74
2021/01/27 01:48:42;;;;;;;0.17;0.17;;;;;;;;;;5017870;28;20422;-72
2021/01/27 01:51:08;;;;;;;0.90;0.83;;;;;;;;;;5017801;28;20256;-73
2021/01/27 01:53:35;;;;;;;0.10;0.10;;;;;;;;;;5018731;28;20301;-73
2021/01/27 01:56:04;;;;;;;0.10;0.10;;;;;;;;;;5019582;28;20201;-72
2021/01/27 01:58:31;;;;;;;1.00;0.60;;;;;;;;;;5020808;28;20618;-73
2021/01/27 02:01:00;;;;;;;1.20;1.20;;;;;;;;;;5019577;28;20194;-73
2021/01/27 02:03:30;;;;;;;0.27;0.27;;;;;;;;;;5018778;28;20182;-73
2021/01/27 02:05:58;;;;;;;0.10;0.10;;;;;;;;;;5019313;28;20372;-74
2021/01/27 02:08:26;;;;;;;0.10;0.10;;;;;;;;;;5021009;28;20670;-74
2021/01/27 02:10:53;;;;;;;0.37;0.37;;;;;;;;;;5019038;28;20182;-74
2021/01/27 02:13:20;;;;;;;1.63;1.00;;;;;;;;;;5018181;28;20195;-74
2021/01/27 02:15:52;;;;;;;0.10;0.10;;;;;;;;;;5018684;28;20193;-74
2021/01/27 02:18:19;;;;;;;4.33;0.80;;;;;;;;;;5017877;28;20210;-74
2021/01/27 02:21:04;;;;;;;0.10;0.10;;;;;;;;;;5020746;28;20191;-74
2021/01/27 02:23:45;;;;;;;1.10;0.57;;;;;;;;;;5023519;28;20190;-74
2021/01/27 02:26:30;;;;;;;0.30;0.30;;;;;;;;;;5022243;28;20204;-73
2021/01/27 02:29:03;;;;;;;0.03;0.03;;;;;;;;;;5021068;28;20194;-74
2021/01/27 02:31:42;;;;;;;0.10;0.10;;;;;;;;;;5019665;28;20183;-74
2021/01/27 02:34:12;;;;;;;0.13;0.13;;;;;;;;;;5021204;28;20218;-71
2021/01/27 02:36:41;;;;;;;0.10;0.10;;;;;;;;;;5019506;28;20222;-73
2021/01/27 02:39:12;;;;;;;0.10;0.10;;;;;;;;;;5020578;28;20193;-74
2021/01/27 02:41:51;;;;;;;0.17;0.17;;;;;;;;;;5017126;28;20186;-74
2021/01/27 02:44:20;;;;;;;0.30;0.30;;;;;;;;;;5013699;28;20217;-74
2021/01/27 02:46:53;;;;;;;0.10;0.10;;;;;;;;;;5018607;28;20194;-75
2021/01/27 02:49:20;;;;;;;2.83;0.50;;;;;;;;;;5022655;28;20198;-75
2021/01/27 02:52:05;;;;;;;2.17;1.00;;;;;;;;;;5020010;28;20199;-79
2021/01/27 02:54:34;;;;;;;1.13;0.97;;;;;;;;;;5017167;28;20228;-71
2021/01/27 02:57:08;;;;;;;4.80;0.50;;;;;;;;;;5015921;28;20216;-68
2021/01/27 03:00:04;;;;;;;0.30;0.30;;;;;;;;;;5019640;28;20180;-73
2021/01/27 03:02:35;;;;;;;0.10;0.10;;;;;;;;;;5010406;28;20514;-66
2021/01/27 03:05:06;;;;;;;0.10;0.10;;;;;;;;;;5019384;28;20193;-68
2021/01/27 13:54:05;;;;;;;0.10;0.10;;;;;;;;;;5051110;27;1731580;-62
2021/01/27 13:56:32;;;;;;;0.00;0.00;;;;;;;;;;5100037;28;20185;-62
2021/01/27 13:58:59;;;;;;;0.00;0.00;;;;;;;;;;5097918;28;20268;-62
2021/01/27 14:01:29;;;;;;;0.03;0.03;;;;;;;;;;5091861;28;20189;-64
2021/01/27 14:03:56;;;;;;;1.33;1.23;;;;;;;;;;5102001;28;20189;-63
2021/01/27 14:06:23;;;;;;;0.10;0.10;;;;;;;;;;5090963;28;20713;-63
2021/01/27 14:08:50;;;;;;;0.37;0.10;;;;;;;;;;5088990;28;20182;-63
2021/01/27 14:11:17;;;;;;;1.60;0.10;;;;;;;;;;5092840;28;20185;-63
2021/01/27 14:13:45;;;;;;;0.00;0.00;;;;;;;;;;5093185;28;20248;-63
2021/01/27 14:16:12;;;;;;;0.07;0.07;;;;;;;;;;5084418;28;20701;-62
2021/01/27 14:18:39;;;;;;;0.00;0.00;;;;;;;;;;5090257;28;20754;-63
2021/01/27 14:21:06;;;;;;;2.43;0.67;;;;;;;;;;5095018;28;20184;-62
2021/01/27 14:23:33;;;;;;;4.80;0.67;;;;;;;;;;5092381;28;20224;-63
2021/01/27 14:25:59;;;;;;;1.93;0.10;;;;;;;;;;5094321;28;20185;-63
2021/01/27 14:28:26;;;;;;;0.10;0.10;;;;;;;;;;5090921;28;20724;-62
2021/01/27 14:30:53;;;;;;;10.60;3.53;;;;;;;;;;5091340;28;20186;-62
2021/01/27 14:33:20;;;;;;;0.00;0.00;;;;;;;;;;5090822;28;20213;-63
2021/01/27 14:35:47;;;;;;;0.10;0.10;;;;;;;;;;5095083;28;20279;-62
2021/01/27 14:38:20;;;;;;;0.20;0.20;;;;;;;;;;5092942;28;20189;-63
2021/01/27 14:40:47;;;;;;;0.20;0.20;;;;;;;;;;5089185;28;20190;-61
2021/01/27 14:43:14;;;;;;;0.10;0.10;;;;;;;;;;5091781;28;20213;-62
2021/01/27 14:45:40;;;;;;;0.30;0.23;;;;;;;;;;5092620;28;20190;-64
2021/01/27 14:48:08;;;;;;;0.00;0.00;;;;;;;;;;5089020;28;20874;-63
2021/01/27 14:50:35;;;;;;;0.23;0.13;;;;;;;;;;5090649;28;20352;-62
2021/01/27 14:53:02;;;;;;;0.00;0.00;;;;;;;;;;5076926;28;20329;-65
2021/01/27 14:55:29;;;;;;;0.70;0.70;;;;;;;;;;5083125;28;20225;-65
2021/01/27 14:57:56;;;;;;;0.97;0.50;;;;;;;;;;5091411;28;20189;-63
2021/01/27 15:00:24;;;;;;;0.17;0.17;;;;;;;;;;5087701;28;20718;-63
2021/01/27 15:02:51;;;;;;;0.20;0.20;;;;;;;;;;5086186;28;20889;-64
2021/01/27 15:05:19;;;;;;;0.00;0.00;;;;;;;;;;5080970;28;20202;-65
2021/01/27 15:07:46;;;;;;;0.10;0.10;;;;;;;;;;5077840;28;20190;-62
2021/01/27 15:10:15;;;;;;;0.00;0.00;;;;;;;;;;5079170;28;20273;-63
2021/01/27 15:12:41;;;;;;;0.20;0.20;;;;;;;;;;5074552;28;20230;-64
2021/01/27 15:15:09;;;;;;;0.40;0.40;;;;;;;;;;5076040;28;20717;-63
2021/01/27 15:17:36;;;;;;;0.67;0.43;;;;;;;;;;5075034;28;20187;-63
2021/01/27 15:20:04;;;;;;;0.87;0.40;;;;;;;;;;5071458;28;20185;-62
2021/01/27 15:22:30;;;;;;;0.67;0.60;;;;;;;;;;5074809;28;20186;-64
2021/01/27 15:24:57;;;;;;;0.13;0.13;;;;;;;;;;5074084;28;20719;-64
2021/01/27 15:27:24;;;;;;;0.57;0.57;;;;;;;;;;5075549;28;20182;-62
2021/01/27 15:29:51;;;;;;;0.20;0.20;;;;;;;;;;5075551;28;20278;-65
2021/01/27 15:32:17;;;;;;;0.20;0.20;;;;;;;;;;5072494;28;20215;-63
2021/01/27 15:34:44;;;;;;;0.10;0.10;;;;;;;;;;5075332;28;20183;-63
2021/01/27 15:37:12;;;;;;;0.00;0.00;;;;;;;;;;5072699;28;20209;-65
2021/01/27 15:39:39;;;;;;;0.00;0.00;;;;;;;;;;5077416;28;20194;-64
2021/01/27 15:42:06;;;;;;;0.00;0.00;;;;;;;;;;5077856;28;20190;-63
2021/01/27 15:44:33;;;;;;;0.00;0.00;;;;;;;;;;5073062;28;20199;-63
2021/01/27 15:47:01;;;;;;;0.00;0.00;;;;;;;;;;5072340;28;20293;-64
2021/01/27 15:49:28;;;;;;;1.17;1.10;;;;;;;;;;5070559;28;20291;-62
2021/01/27 15:51:55;;;;;;;0.20;0.20;;;;;;;;;;5074294;28;20283;-63
2021/01/27 15:54:22;;;;;;;0.10;0.10;;;;;;;;;;5077840;28;20664;-63
2021/01/27 15:56:48;;;;;;;0.03;0.03;;;;;;;;;;5076728;28;20183;-64
2021/01/27 15:59:15;;;;;;;0.27;0.10;;;;;;;;;;5077773;28;20292;-63
2021/01/27 16:01:44;;;;;;;0.00;0.00;;;;;;;;;;5075006;28;20183;-61
2021/01/27 16:04:11;;;;;;;0.00;0.00;;;;;;;;;;5081673;28;20201;-64
2021/01/27 16:06:38;;;;;;;0.00;0.00;;;;;;;;;;5075056;28;20710;-63
2021/01/27 16:09:05;;;;;;;1.50;0.40;;;;;;;;;;5073888;28;20188;-62
2021/01/27 16:11:32;;;;;;;0.00;0.00;;;;;;;;;;5072758;28;20313;-64
2021/01/27 16:13:58;;;;;;;1.23;0.20;;;;;;;;;;5078740;28;20186;-64
2021/01/27 16:16:25;;;;;;;0.93;0.00;;;;;;;;;;5079790;28;20704;-63
2021/01/27 16:18:52;;;;;;;0.00;0.00;;;;;;;;;;5076005;28;20190;-63
2021/01/27 16:21:19;;;;;;;0.10;0.10;;;;;;;;;;5062312;28;20182;-63
2021/01/27 16:23:45;;;;;;;0.43;0.20;;;;;;;;;;5079382;28;20195;-65
2021/01/27 16:26:12;;;;;;;0.30;0.27;;;;;;;;;;5069996;28;20663;-63
2021/01/27 16:28:39;;;;;;;1.13;0.60;;;;;;;;;;5054281;28;20259;-63
2021/01/27 16:31:06;;;;;;;0.20;0.10;;;;;;;;;;5054248;28;20192;-63
2021/01/27 16:33:33;;;;;;;0.37;0.20;;;;;;;;;;5068503;28;20230;-62
2021/01/27 16:36:02;;;;;;;1.50;0.33;;;;;;;;;;5068906;28;20202;-64
2021/01/27 16:38:29;;;;;;;0.40;0.40;;;;;;;;;;5073829;28;20193;-64
2021/01/27 16:40:56;;;;;;;0.20;0.20;;;;;;;;;;5079099;28;20268;-63
2021/01/27 16:43:22;;;;;;;0.67;0.37;;;;;;;;;;5070521;28;20660;-62
2021/01/27 16:45:52;;;;;;;0.00;0.00;;;;;;;;;;5081039;28;20178;-63
2021/01/27 16:48:18;;;;;;;0.10;0.10;;;;;;;;;;5077222;28;20279;-63
2021/01/27 16:50:45;;;;;;;0.10;0.10;;;;;;;;;;5076727;28;20178;-64
2021/01/27 16:53:12;;;;;;;1.27;0.20;;;;;;;;;;5073763;28;20327;-63
2021/01/27 16:55:39;;;;;;;0.40;0.40;;;;;;;;;;5075943;28;20225;-62
2021/01/27 16:58:06;;;;;;;2.57;1.53;;;;;;;;;;5075512;28;20185;-63
2021/01/27 17:00:33;;;;;;;2.00;1.80;;;;;;;;;;5076718;28;20218;-62
2021/01/27 17:03:00;;;;;;;1.20;0.43;;;;;;;;;;5069238;28;20873;-64
2021/01/27 17:05:30;;;;;;;0.20;0.20;;;;;;;;;;5074540;28;20186;-63
2021/01/27 17:07:59;;;;;;;0.30;0.30;;;;;;;;;;5074006;28;20195;-62
2021/01/27 17:10:26;;;;;;;0.57;0.40;;;;;;;;;;5074561;28;20187;-63
2021/01/27 17:12:53;;;;;;;0.03;0.03;;;;;;;;;;5079008;28;20220;-63
2021/01/27 17:15:20;;;;;;;0.30;0.30;;;;;;;;;;5075210;28;20225;-63
2021/01/27 17:17:47;;;;;;;0.63;0.50;;;;;;;;;;5068763;28;20194;-64
2021/01/27 17:20:14;;;;;;;0.00;0.00;;;;;;;;;;5080249;28;20552;-63
2021/01/27 17:22:41;;;;;;;0.37;0.20;;;;;;;;;;5077967;28;20179;-64
2021/01/27 17:25:09;;;;;;;0.10;0.10;;;;;;;;;;5077510;28;20191;-62
2021/01/27 17:27:36;;;;;;;0.00;0.00;;;;;;;;;;5078563;28;20812;-63
2021/01/27 17:30:07;;;;;;;0.00;0.00;;;;;;;;;;5075285;28;20194;-62
2021/01/27 17:32:34;;;;;;;0.10;0.10;;;;;;;;;;5068323;28;20220;-65
2021/01/27 17:35:01;;;;;;;0.20;0.10;;;;;;;;;;5074114;28;20256;-63
2021/01/27 17:37:28;;;;;;;0.23;0.20;;;;;;;;;;5073246;28;20181;-63
2021/01/27 17:39:55;;;;;;;0.10;0.10;;;;;;;;;;5079717;28;20183;-63
2021/01/27 17:42:22;;;;;;;0.30;0.17;;;;;;;;;;5075348;28;20188;-63
2021/01/27 17:44:49;;;;;;;0.00;0.00;;;;;;;;;;5077332;28;20194;-63
2021/01/27 17:47:16;;;;;;;0.00;0.00;;;;;;;;;;5076316;28;20185;-63
2021/01/27 17:49:42;;;;;;;1.80;0.60;;;;;;;;;;5071581;28;20183;-62
2021/01/27 17:52:09;;;;;;;1.97;0.20;;;;;;;;;;5075230;28;20742;-66
2021/01/27 17:54:36;;;;;;;0.37;0.17;;;;;;;;;;5071968;28;20181;-62
2021/01/27 17:57:03;;;;;;;1.07;0.43;;;;;;;;;;5054897;28;20216;-62
2021/01/27 17:59:30;;;;;;;0.97;0.10;;;;;;;;;;5068420;28;20193;-64
2021/01/27 18:01:56;;;;;;;0.20;0.13;;;;;;;;;;5073557;28;20262;-64
2021/01/27 18:04:23;;;;;;;1.20;0.60;;;;;;;;;;5079216;28;20191;-63
2021/01/27 18:06:50;;;;;;;0.00;0.00;;;;;;;;;;5069439;28;20182;-65
2021/01/27 18:09:17;;;;;;;0.20;0.20;;;;;;;;;;5065961;28;20187;-64
2021/01/27 18:11:44;;;;;;;0.30;0.30;;;;;;;;;;5069114;28;20176;-63
2021/01/27 18:14:10;;;;;;;0.10;0.10;;;;;;;;;;5075440;28;20190;-63
2021/01/27 18:16:37;;;;;;;0.00;0.00;;;;;;;;;;5068692;28;20203;-64
2021/01/27 18:19:05;;;;;;;0.77;0.27;;;;;;;;;;5072301;28;20686;-63
2021/01/27 18:21:34;;;;;;;19.97;0.97;;;;;;;;;;5070144;28;20187;-63
2021/01/27 18:24:01;;;;;;;0.00;0.00;;;;;;;;;;5077341;28;20768;-65
2021/01/27 18:26:28;;;;;;;1.70;0.50;;;;;;;;;;5070882;28;20199;-65
2021/01/27 18:28:55;;;;;;;0.67;0.67;;;;;;;;;;5072514;28;20281;-64
2021/01/27 18:31:23;;;;;;;0.00;0.00;;;;;;;;;;5067188;28;20731;-64
2021/01/27 18:33:49;;;;;;;0.00;0.00;;;;;;;;;;5061524;28;20218;-65
2021/01/27 18:36:16;;;;;;;0.50;0.23;;;;;;;;;;5062511;28;20185;-64
2021/01/27 18:38:43;;;;;;;1.23;0.90;;;;;;;;;;5072193;28;20294;-64
2021/01/27 18:41:09;;;;;;;0.20;0.10;;;;;;;;;;5075458;28;20219;-64
2021/01/27 18:43:36;;;;;;;0.00;0.00;;;;;;;;;;5077256;28;20656;-64
2021/01/27 18:46:03;;;;;;;0.37;0.20;;;;;;;;;;5084034;28;20204;-63
2021/01/27 18:48:31;;;;;;;2.47;0.60;;;;;;;;;;5065452;28;20178;-63
2021/01/27 18:50:58;;;;;;;0.10;0.10;;;;;;;;;;5074625;28;20189;-63
2021/01/27 18:53:26;;;;;;;0.00;0.00;;;;;;;;;;5079760;28;20284;-64
2021/01/27 18:55:53;;;;;;;0.00;0.00;;;;;;;;;;5081996;28;20221;-64
2021/01/27 18:58:22;;;;;;;1.90;0.87;;;;;;;;;;5081378;28;20246;-65
2021/01/27 19:00:49;;;;;;;0.10;0.10;;;;;;;;;;5078639;28;20267;-65
2021/01/27 19:03:16;;;;;;;0.00;0.00;;;;;;;;;;5080115;28;20187;-63
2021/01/27 19:05:43;;;;;;;0.43;0.43;;;;;;;;;;5080312;28;20192;-64
2021/01/27 19:08:10;;;;;;;0.10;0.10;;;;;;;;;;5079467;28;20279;-63
2021/01/27 19:10:38;;;;;;;1.83;0.20;;;;;;;;;;5081267;28;20190;-63
2021/01/27 19:13:05;;;;;;;0.10;0.10;;;;;;;;;;5083142;28;20223;-65
2021/01/27 19:15:34;;;;;;;1.20;0.50;;;;;;;;;;5076822;28;20194;-63
2021/01/27 19:18:00;;;;;;;1.03;0.93;;;;;;;;;;5081698;28;20187;-63
2021/01/27 19:20:27;;;;;;;2.90;0.83;;;;;;;;;;5082518;28;20589;-64
2021/01/27 19:22:54;;;;;;;0.13;0.13;;;;;;;;;;5074477;28;20189;-63
2021/01/27 19:25:22;;;;;;;0.23;0.20;;;;;;;;;;5082512;28;20548;-63
2021/01/27 19:27:49;;;;;;;1.80;1.70;;;;;;;;;;5075045;28;20176;-64
2021/01/27 19:30:17;;;;;;;0.07;0.07;;;;;;;;;;5080345;28;20268;-64
2021/01/27 19:32:43;;;;;;;0.30;0.30;;;;;;;;;;5078065;28;20237;-65
2021/01/27 19:35:10;;;;;;;0.00;0.00;;;;;;;;;;5080232;28;20188;-63
2021/01/27 19:37:37;;;;;;;0.00;0.00;;;;;;;;;;5081256;28;20207;-63
2021/01/27 19:40:06;;;;;;;0.10;0.10;;;;;;;;;;5073825;28;20208;-62
2021/01/27 19:42:33;;;;;;;0.00;0.00;;;;;;;;;;5074443;28;20191;-63
2021/01/27 19:45:00;;;;;;;0.00;0.00;;;;;;;;;;5072398;28;20186;-63
2021/01/27 19:47:27;;;;;;;0.00;0.00;;;;;;;;;;5078995;28;20190;-63
2021/01/27 19:49:54;;;;;;;0.13;0.13;;;;;;;;;;5081358;28;20571;-61
2021/01/27 19:52:21;;;;;;;0.00;0.00;;;;;;;;;;5073924;28;20238;-63
2021/01/27 19:54:48;;;;;;;0.00;0.00;;;;;;;;;;5081073;28;20322;-62
2021/01/27 19:57:14;;;;;;;0.57;0.30;;;;;;;;;;5081554;28;20191;-64
2021/01/27 19:59:41;;;;;;;0.20;0.20;;;;;;;;;;5078002;28;20756;-63
2021/01/27 20:02:10;;;;;;;1.20;0.10;;;;;;;;;;5071843;28;20251;-63
2021/01/27 20:04:36;;;;;;;0.20;0.20;;;;;;;;;;5072635;28;20265;-64
2021/01/27 20:07:03;;;;;;;0.00;0.00;;;;;;;;;;5069169;28;20654;-62
2021/01/27 20:09:30;;;;;;;0.40;0.40;;;;;;;;;;5074906;28;20187;-63
2021/01/27 20:11:57;;;;;;;0.10;0.10;;;;;;;;;;5067046;28;20202;-62
2021/01/27 20:14:23;;;;;;;0.00;0.00;;;;;;;;;;5067964;28;20183;-63
2021/01/27 20:16:50;;;;;;;0.00;0.00;;;;;;;;;;5067133;28;20209;-64
2021/01/27 20:19:17;;;;;;;3.13;0.37;;;;;;;;;;5071419;28;20209;-63
2021/01/27 20:21:43;;;;;;;0.00;0.00;;;;;;;;;;5075157;28;20228;-63
2021/01/27 20:24:11;;;;;;;0.00;0.00;;;;;;;;;;5073088;28;20276;-62
2021/01/27 20:26:38;;;;;;;0.57;0.17;;;;;;;;;;5070393;28;20269;-63
2021/01/27 20:29:05;;;;;;;7.90;3.43;;;;;;;;;;5067455;28;20190;-65
2021/01/27 20:31:32;;;;;;;0.00;0.00;;;;;;;;;;5072545;28;20206;-61
2021/01/27 20:33:58;;;;;;;0.00;0.00;;;;;;;;;;5072816;28;20230;-63
2021/01/27 20:36:25;;;;;;;0.00;0.00;;;;;;;;;;5071528;28;20191;-64
2021/01/27 20:38:52;;;;;;;0.10;0.00;;;;;;;;;;5071343;28;20206;-62
2021/01/27 20:41:19;;;;;;;0.10;0.10;;;;;;;;;;5067889;28;20682;-64
2021/01/27 20:43:45;;;;;;;0.53;0.07;;;;;;;;;;5071186;28;20201;-63
2021/01/27 20:46:12;;;;;;;0.03;0.03;;;;;;;;;;5072339;28;20187;-63
2021/01/27 20:48:40;;;;;;;0.00;0.00;;;;;;;;;;5066751;28;20202;-64
2021/01/27 20:51:07;;;;;;;0.00;0.00;;;;;;;;;;5073156;28;20219;-64
2021/01/27 20:53:35;;;;;;;0.97;0.10;;;;;;;;;;5069494;28;20256;-62
2021/01/27 20:56:02;;;;;;;0.00;0.00;;;;;;;;;;5075236;28;20186;-63
2021/01/27 20:58:29;;;;;;;0.40;0.40;;;;;;;;;;5072938;28;20275;-64
2021/01/27 21:00:56;;;;;;;0.00;0.00;;;;;;;;;;5072635;28;20193;-62
2021/01/27 21:03:25;;;;;;;0.00;0.00;;;;;;;;;;5072478;28;20197;-63
2021/01/27 21:05:52;;;;;;;0.00;0.00;;;;;;;;;;5079782;28;20279;-62
2021/01/27 21:08:19;;;;;;;1.10;0.57;;;;;;;;;;5055962;28;20285;-64
2021/01/27 21:10:46;;;;;;;0.00;0.00;;;;;;;;;;5058669;28;20735;-63
2021/01/27 21:13:13;;;;;;;0.10;0.10;;;;;;;;;;5072209;28;20222;-64
2021/01/27 21:15:42;;;;;;;4.33;1.23;;;;;;;;;;5071068;28;20302;-64
2021/01/27 21:18:09;;;;;;;0.23;0.00;;;;;;;;;;5071499;28;20905;-65
2021/01/27 21:20:36;;;;;;;0.00;0.00;;;;;;;;;;5076066;28;20870;-63
2021/01/27 21:23:04;;;;;;;0.00;0.00;;;;;;;;;;5063519;28;20231;-63
2021/01/27 21:25:32;;;;;;;0.00;0.00;;;;;;;;;;5069564;28;20184;-64
2021/01/27 21:27:59;;;;;;;0.00;0.00;;;;;;;;;;5075029;28;20852;-64
2021/01/27 21:30:27;;;;;;;0.00;0.00;;;;;;;;;;5067515;28;20295;-63
2021/01/27 21:32:53;;;;;;;1.47;0.07;;;;;;;;;;5066962;28;20226;-62
2021/01/27 21:35:20;;;;;;;1.80;0.50;;;;;;;;;;5071607;28;20738;-63
2021/01/27 21:37:47;;;;;;;0.37;0.37;;;;;;;;;;5069455;28;20190;-62
2021/01/27 21:40:15;;;;;;;0.00;0.00;;;;;;;;;;5063023;28;20189;-64
2021/01/27 21:42:43;;;;;;;0.00;0.00;;;;;;;;;;5058402;28;20216;-63
2021/01/27 21:45:11;;;;;;;0.27;0.10;;;;;;;;;;5067371;28;20189;-64
2021/01/27 21:47:37;;;;;;;0.00;0.00;;;;;;;;;;5070255;28;20190;-62
2021/01/27 21:50:06;;;;;;;0.00;0.00;;;;;;;;;;5068846;28;20668;-62
2021/01/27 21:52:32;;;;;;;0.00;0.00;;;;;;;;;;5068370;28;20335;-62
2021/01/27 21:54:59;;;;;;;0.70;0.10;;;;;;;;;;5075526;28;20190;-64
2021/01/27 21:57:26;;;;;;;0.30;0.30;;;;;;;;;;5068341;28;20190;-61
2021/01/27 21:59:52;;;;;;;0.00;0.00;;;;;;;;;;5075671;28;20794;-64
2021/01/27 22:02:19;;;;;;;0.00;0.00;;;;;;;;;;5072515;28;20187;-64
2021/01/27 22:04:46;;;;;;;10.83;0.90;;;;;;;;;;5074705;28;20193;-63
2021/01/27 22:07:13;;;;;;;0.00;0.00;;;;;;;;;;5070612;28;20184;-63
2021/01/27 22:09:39;;;;;;;0.00;0.00;;;;;;;;;;5068009;28;20205;-64
2021/01/27 22:12:06;;;;;;;0.00;0.00;;;;;;;;;;5069890;28;20213;-62
2021/01/27 22:14:33;;;;;;;0.10;0.10;;;;;;;;;;5073330;28;20609;-63
2021/01/27 22:17:00;;;;;;;0.00;0.00;;;;;;;;;;5077830;28;20182;-62
2021/01/27 22:19:29;;;;;;;0.10;0.10;;;;;;;;;;5080107;28;20190;-65
2021/01/27 22:21:55;;;;;;;0.20;0.10;;;;;;;;;;5063012;28;20209;-62
2021/01/27 22:24:22;;;;;;;0.00;0.00;;;;;;;;;;5055323;28;20548;-62
2021/01/27 22:26:48;;;;;;;0.00;0.00;;;;;;;;;;5068799;28;20183;-62
2021/01/27 22:29:15;;;;;;;0.17;0.13;;;;;;;;;;5075733;28;20190;-63
2021/01/27 22:31:42;;;;;;;0.00;0.00;;;;;;;;;;5080613;28;20178;-62
2021/01/27 22:34:08;;;;;;;0.00;0.00;;;;;;;;;;5078655;28;20217;-63
2021/01/27 22:36:35;;;;;;;0.00;0.00;;;;;;;;;;5078451;28;20572;-64
2021/01/27 22:39:01;;;;;;;0.10;0.10;;;;;;;;;;5079278;28;20171;-63
2021/01/27 22:41:28;;;;;;;0.13;0.13;;;;;;;;;;5075847;28;20194;-63
2021/01/27 22:43:55;;;;;;;0.00;0.00;;;;;;;;;;5080530;28;20174;-63
2021/01/27 22:46:21;;;;;;;0.00;0.00;;;;;;;;;;5076793;28;21075;-62
2021/01/27 22:48:48;;;;;;;0.00;0.00;;;;;;;;;;5080005;28;20190;-64
2021/01/27 22:51:14;;;;;;;1.40;0.30;;;;;;;;;;5077243;28;20264;-64
2021/01/27 22:53:41;;;;;;;0.00;0.00;;;;;;;;;;5075000;28;20316;-64
2021/01/27 22:56:08;;;;;;;6.80;1.30;;;;;;;;;;5078822;28;20187;-64
2021/01/27 22:58:34;;;;;;;0.10;0.10;;;;;;;;;;5081108;28;20193;-62
2021/01/27 23:01:01;;;;;;;0.00;0.00;;;;;;;;;;5077932;28;20193;-64
2021/01/27 23:03:28;;;;;;;0.00;0.00;;;;;;;;;;5074945;28;20213;-64
2021/01/27 23:05:55;;;;;;;0.00;0.00;;;;;;;;;;5074242;28;20197;-63
2021/01/27 23:08:23;;;;;;;0.00;0.00;;;;;;;;;;5081593;28;20279;-61
2021/01/27 23:10:51;;;;;;;0.00;0.00;;;;;;;;;;5080759;28;20188;-65
2021/01/27 23:13:18;;;;;;;0.00;0.00;;;;;;;;;;5077582;28;20357;-63
2021/01/27 23:15:45;;;;;;;0.00;0.00;;;;;;;;;;5068046;28;20812;-63
2021/01/27 23:18:14;;;;;;;0.30;0.30;;;;;;;;;;5071510;28;20289;-61
2021/01/27 23:20:41;;;;;;;1.70;0.30;;;;;;;;;;5075339;28;20212;-63
2021/01/27 23:23:09;;;;;;;0.00;0.00;;;;;;;;;;5073096;28;20217;-61
2021/01/27 23:25:36;;;;;;;0.40;0.37;;;;;;;;;;5074959;28;20189;-62
2021/01/27 23:28:03;;;;;;;0.00;0.00;;;;;;;;;;5076906;28;20197;-62
2021/01/27 23:30:30;;;;;;;0.47;0.30;;;;;;;;;;5074799;28;20213;-64
2021/01/27 23:32:58;;;;;;;0.00;0.00;;;;;;;;;;5077600;28;20778;-62
2021/01/27 23:35:27;;;;;;;0.10;0.10;;;;;;;;;;5077634;28;20269;-64
2021/01/27 23:37:54;;;;;;;0.20;0.20;;;;;;;;;;5081244;28;20186;-62
2021/01/27 23:40:20;;;;;;;0.00;0.00;;;;;;;;;;5080929;28;20181;-62
2021/01/27 23:42:48;;;;;;;0.00;0.00;;;;;;;;;;5079720;28;20305;-68
2021/01/27 23:45:15;;;;;;;1.43;0.40;;;;;;;;;;5058111;28;20184;-63
2021/01/27 23:47:42;;;;;;;0.10;0.10;;;;;;;;;;5076885;28;20240;-63
2021/01/27 23:50:09;;;;;;;0.10;0.10;;;;;;;;;;5074159;28;20194;-63
2021/01/27 23:52:36;;;;;;;0.00;0.00;;;;;;;;;;5078771;28;20237;-65
2021/01/27 23:55:03;;;;;;;0.00;0.00;;;;;;;;;;5077858;28;20758;-64
2021/01/27 23:57:30;;;;;;;1.60;1.60;;;;;;;;;;5074847;28;20186;-64
2021/01/27 23:59:56;;;;;;;0.00;0.00;;;;;;;;;;5073693;28;20178;-63
